< < Back
Terminal Aerodrome Forecast


Current Version              Previous Versions:   1  2  3  4  5  6  7  8  9  

Terminal Aerodrome Forecast

709
FTUS44 KMOB 252323
TAFMOB
TAF
KMOB 252323Z 2600/2624 VRB03KT P6SM FEW050 SCT100 OVC250
     FM261500 04004KT P6SM SCT250=

Latest METAR

351
SAUS80 KWBC 260500 CCA
MTRMOB
METAR KMOB 260456Z AUTO 00000KT 10SM CLR 22/21 A3002 RMK AO2 SLP161
T02220211


USA.gov is the U.S. government's official web portal to all federal, state and local government web resources and services.